sensor_id;sensor_type;location;lat;lon;timestamp;pressure;altitude;pressure_sealevel;temperature;humidity
74659;BME280;63186;51.204;6.536;2023-01-24T00:00:40;103265.28;;;1.59;86.11
74659;BME280;63186;51.204;6.536;2023-01-24T00:03:06;103263.59;;;1.58;86.40
74659;BME280;63186;51.204;6.536;2023-01-24T00:05:37;103266.31;;;1.58;85.29
74659;BME280;63186;51.204;6.536;2023-01-24T00:08:02;103261.53;;;1.60;86.12
74659;BME280;63186;51.204;6.536;2023-01-24T00:10:28;103253.38;;;1.60;85.14
74659;BME280;63186;51.204;6.536;2023-01-24T00:12:54;103268.19;;;1.57;85.52
74659;BME280;63186;51.204;6.536;2023-01-24T00:15:19;103270.50;;;1.60;84.74
74659;BME280;63186;51.204;6.536;2023-01-24T00:17:44;103262.38;;;1.60;85.21
74659;BME280;63186;51.204;6.536;2023-01-24T00:20:10;103274.06;;;1.61;84.97
74659;BME280;63186;51.204;6.536;2023-01-24T00:22:35;103261.53;;;1.60;85.13
74659;BME280;63186;51.204;6.536;2023-01-24T00:25:00;103262.56;;;1.59;85.11
74659;BME280;63186;51.204;6.536;2023-01-24T00:27:26;103259.38;;;1.55;85.57
74659;BME280;63186;51.204;6.536;2023-01-24T00:29:51;103261.06;;;1.56;85.81
74659;BME280;63186;51.204;6.536;2023-01-24T00:32:16;103265.66;;;1.56;86.11
74659;BME280;63186;51.204;6.536;2023-01-24T00:34:41;103264.81;;;1.55;86.05
74659;BME280;63186;51.204;6.536;2023-01-24T00:37:07;103268.34;;;1.56;85.94
74659;BME280;63186;51.204;6.536;2023-01-24T00:39:32;103263.13;;;1.54;86.25
74659;BME280;63186;51.204;6.536;2023-01-24T00:41:57;103272.69;;;1.50;86.83
74659;BME280;63186;51.204;6.536;2023-01-24T00:44:23;103274.75;;;1.48;86.68
74659;BME280;63186;51.204;6.536;2023-01-24T00:46:51;103265.75;;;1.48;86.99
74659;BME280;63186;51.204;6.536;2023-01-24T00:49:16;103264.91;;;1.47;86.99
74659;BME280;63186;51.204;6.536;2023-01-24T00:51:42;103262.19;;;1.47;86.92
74659;BME280;63186;51.204;6.536;2023-01-24T00:54:07;103252.81;;;1.50;86.86
74659;BME280;63186;51.204;6.536;2023-01-24T00:56:32;103253.50;;;1.52;86.43
74659;BME280;63186;51.204;6.536;2023-01-24T00:58:57;103260.59;;;1.53;86.42
74659;BME280;63186;51.204;6.536;2023-01-24T01:01:23;103256.41;;;1.50;86.91
74659;BME280;63186;51.204;6.536;2023-01-24T01:03:48;103256.13;;;1.45;87.05
74659;BME280;63186;51.204;6.536;2023-01-24T01:06:15;103262.41;;;1.46;87.02
74659;BME280;63186;51.204;6.536;2023-01-24T01:08:41;103260.53;;;1.46;86.79
74659;BME280;63186;51.204;6.536;2023-01-24T01:11:06;103252.81;;;1.50;86.41
74659;BME280;63186;51.204;6.536;2023-01-24T01:13:32;103255.72;;;1.48;86.92
74659;BME280;63186;51.204;6.536;2023-01-24T01:16:07;103262.00;;;1.49;86.88
74659;BME280;63186;51.204;6.536;2023-01-24T01:18:35;103253.03;;;1.48;86.75
74659;BME280;63186;51.204;6.536;2023-01-24T01:21:01;103246.31;;;1.44;86.68
74659;BME280;63186;51.204;6.536;2023-01-24T01:23:27;103253.69;;;1.50;86.78
74659;BME280;63186;51.204;6.536;2023-01-24T01:25:52;103258.00;;;1.45;87.03
74659;BME280;63186;51.204;6.536;2023-01-24T01:28:17;103260.72;;;1.45;86.59
74659;BME280;63186;51.204;6.536;2023-01-24T01:30:42;103261.91;;;1.42;86.67
74659;BME280;63186;51.204;6.536;2023-01-24T01:33:08;103264.47;;;1.44;86.48
74659;BME280;63186;51.204;6.536;2023-01-24T01:35:33;103270.91;;;1.43;86.07
74659;BME280;63186;51.204;6.536;2023-01-24T01:37:59;103269.91;;;1.44;86.29
74659;BME280;63186;51.204;6.536;2023-01-24T01:40:24;103280.91;;;1.42;86.24
74659;BME280;63186;51.204;6.536;2023-01-24T01:42:54;103278.22;;;1.42;86.47
74659;BME280;63186;51.204;6.536;2023-01-24T01:45:33;103267.94;;;1.38;86.70
74659;BME280;63186;51.204;6.536;2023-01-24T01:48:00;103266.41;;;1.35;86.61
74659;BME280;63186;51.204;6.536;2023-01-24T01:50:32;103272.13;;;1.40;86.39
74659;BME280;63186;51.204;6.536;2023-01-24T01:52:58;103268.56;;;1.40;86.26
74659;BME280;63186;51.204;6.536;2023-01-24T01:55:27;103271.28;;;1.40;86.04
74659;BME280;63186;51.204;6.536;2023-01-24T01:57:54;103276.53;;;1.41;85.83
74659;BME280;63186;51.204;6.536;2023-01-24T02:00:22;103274.00;;;1.40;85.58
74659;BME280;63186;51.204;6.536;2023-01-24T02:02:53;103267.75;;;1.39;85.58
74659;BME280;63186;51.204;6.536;2023-01-24T02:05:23;103266.22;;;1.36;85.74
74659;BME280;63186;51.204;6.536;2023-01-24T02:08:02;103263.72;;;1.35;85.71
74659;BME280;63186;51.204;6.536;2023-01-24T02:10:29;103269.31;;;1.33;86.25
74659;BME280;63186;51.204;6.536;2023-01-24T02:13:14;103271.19;;;1.33;86.13
74659;BME280;63186;51.204;6.536;2023-01-24T02:15:41;103276.00;;;1.31;86.25
74659;BME280;63186;51.204;6.536;2023-01-24T02:18:27;103277.88;;;1.30;85.76
74659;BME280;63186;51.204;6.536;2023-01-24T02:20:52;103274.75;;;1.33;86.08
74659;BME280;63186;51.204;6.536;2023-01-24T02:26:20;103270.81;;;1.36;85.57
74659;BME280;63186;51.204;6.536;2023-01-24T02:28:57;103265.56;;;1.34;85.56
74659;BME280;63186;51.204;6.536;2023-01-24T02:31:23;103262.88;;;1.34;86.06
74659;BME280;63186;51.204;6.536;2023-01-24T02:33:49;103257.63;;;1.33;86.17
74659;BME280;63186;51.204;6.536;2023-01-24T02:36:21;103259.31;;;1.34;85.68
74659;BME280;63186;51.204;6.536;2023-01-24T02:38:52;103259.97;;;1.36;86.31
74659;BME280;63186;51.204;6.536;2023-01-24T02:41:23;103264.38;;;1.37;85.98
74659;BME280;63186;51.204;6.536;2023-01-24T02:43:52;103249.94;;;1.36;85.66
74659;BME280;63186;51.204;6.536;2023-01-24T02:46:20;103249.56;;;1.40;85.15
74659;BME280;63186;51.204;6.536;2023-01-24T02:48:45;103259.59;;;1.39;85.49
74659;BME280;63186;51.204;6.536;2023-01-24T02:51:10;103250.81;;;1.37;85.86
74659;BME280;63186;51.204;6.536;2023-01-24T02:53:54;103253.97;;;1.41;86.30
74659;BME280;63186;51.204;6.536;2023-01-24T02:56:19;103244.34;;;1.38;86.25
74659;BME280;63186;51.204;6.536;2023-01-24T02:59:03;103251.66;;;1.38;85.85
74659;BME280;63186;51.204;6.536;2023-01-24T03:01:29;103249.78;;;1.38;85.70
74659;BME280;63186;51.204;6.536;2023-01-24T03:03:57;103248.94;;;1.38;85.67
74659;BME280;63186;51.204;6.536;2023-01-24T03:06:22;103240.78;;;1.38;85.36
74659;BME280;63186;51.204;6.536;2023-01-24T03:08:48;103241.63;;;1.38;84.29
74659;BME280;63186;51.204;6.536;2023-01-24T03:11:13;103244.16;;;1.40;84.38
74659;BME280;63186;51.204;6.536;2023-01-24T03:13:39;103240.59;;;1.39;85.06
74659;BME280;63186;51.204;6.536;2023-01-24T03:16:23;103235.16;;;1.39;84.99
74659;BME280;63186;51.204;6.536;2023-01-24T03:19:07;103234.53;;;1.37;85.30
74659;BME280;63186;51.204;6.536;2023-01-24T03:21:51;103238.91;;;1.38;84.69
74659;BME280;63186;51.204;6.536;2023-01-24T03:24:35;103232.66;;;1.38;84.44
74659;BME280;63186;51.204;6.536;2023-01-24T03:27:19;103238.91;;;1.38;84.42
74659;BME280;63186;51.204;6.536;2023-01-24T03:30:04;103245.19;;;1.39;83.66
74659;BME280;63186;51.204;6.536;2023-01-24T03:32:48;103245.19;;;1.39;83.90
74659;BME280;63186;51.204;6.536;2023-01-24T03:35:32;103247.91;;;1.39;83.73
74659;BME280;63186;51.204;6.536;2023-01-24T03:37:57;103243.31;;;1.39;83.70
74659;BME280;63186;51.204;6.536;2023-01-24T03:40:42;103251.44;;;1.39;83.52
74659;BME280;63186;51.204;6.536;2023-01-24T03:43:07;103248.75;;;1.39;84.29
74659;BME280;63186;51.204;6.536;2023-01-24T03:45:36;103250.63;;;1.39;84.44
74659;BME280;63186;51.204;6.536;2023-01-24T03:48:04;103246.22;;;1.38;84.68
74659;BME280;63186;51.204;6.536;2023-01-24T03:50:36;103240.97;;;1.36;84.52
74659;BME280;63186;51.204;6.536;2023-01-24T03:53:23;103241.16;;;1.34;84.76
74659;BME280;63186;51.204;6.536;2023-01-24T03:55:59;103237.41;;;1.35;85.17
74659;BME280;63186;51.204;6.536;2023-01-24T03:58:28;103230.84;;;1.30;85.04
74659;BME280;63186;51.204;6.536;2023-01-24T04:00:54;103241.78;;;1.36;84.53
74659;BME280;63186;51.204;6.536;2023-01-24T04:03:19;103243.03;;;1.34;85.06
74659;BME280;63186;51.204;6.536;2023-01-24T04:05:49;103244.91;;;1.33;85.39
74659;BME280;63186;51.204;6.536;2023-01-24T04:08:15;103241.53;;;1.31;84.96
74659;BME280;63186;51.204;6.536;2023-01-24T04:10:40;103240.03;;;1.29;85.52
74659;BME280;63186;51.204;6.536;2023-01-24T04:13:06;103239.00;;;1.30;84.73
74659;BME280;63186;51.204;6.536;2023-01-24T04:15:32;103245.28;;;1.30;85.00
74659;BME280;63186;51.204;6.536;2023-01-24T04:17:59;103244.06;;;1.33;84.50
74659;BME280;63186;51.204;6.536;2023-01-24T04:20:27;103239.47;;;1.33;84.86
74659;BME280;63186;51.204;6.536;2023-01-24T04:22:52;103235.28;;;1.31;84.88
74659;BME280;63186;51.204;6.536;2023-01-24T04:25:18;103235.44;;;1.29;84.61
74659;BME280;63186;51.204;6.536;2023-01-24T04:27:44;103239.19;;;1.28;84.77
74659;BME280;63186;51.204;6.536;2023-01-24T04:30:11;103235.63;;;1.28;84.36
74659;BME280;63186;51.204;6.536;2023-01-24T04:32:37;103232.94;;;1.28;84.05
74659;BME280;63186;51.204;6.536;2023-01-24T04:35:03;103240.72;;;1.31;83.42
74659;BME280;63186;51.204;6.536;2023-01-24T04:37:30;103230.84;;;1.30;83.94
74659;BME280;63186;51.204;6.536;2023-01-24T04:39:55;103235.84;;;1.26;84.04
74659;BME280;63186;51.204;6.536;2023-01-24T04:42:20;103227.06;;;1.24;84.79
74659;BME280;63186;51.204;6.536;2023-01-24T04:44:46;103222.63;;;1.23;83.97
74659;BME280;63186;51.204;6.536;2023-01-24T04:47:11;103231.44;;;1.25;84.07
74659;BME280;63186;51.204;6.536;2023-01-24T04:49:36;103225.34;;;1.23;83.80
74659;BME280;63186;51.204;6.536;2023-01-24T04:52:01;103226.84;;;1.26;83.98
74659;BME280;63186;51.204;6.536;2023-01-24T04:54:27;103232.47;;;1.24;84.45
74659;BME280;63186;51.204;6.536;2023-01-24T04:56:52;103245.56;;;1.21;84.18
74659;BME280;63186;51.204;6.536;2023-01-24T04:59:17;103238.47;;;1.20;84.16
74659;BME280;63186;51.204;6.536;2023-01-24T05:01:42;103233.03;;;1.20;84.68
74659;BME280;63186;51.204;6.536;2023-01-24T05:04:08;103232.00;;;1.21;84.15
74659;BME280;63186;51.204;6.536;2023-01-24T05:06:33;103243.50;;;1.23;84.51
74659;BME280;63186;51.204;6.536;2023-01-24T05:08:59;103239.94;;;1.22;85.17
74659;BME280;63186;51.204;6.536;2023-01-24T05:11:25;103236.09;;;1.17;84.08
74659;BME280;63186;51.204;6.536;2023-01-24T05:13:50;103242.22;;;1.19;84.17
74659;BME280;63186;51.204;6.536;2023-01-24T05:16:16;103239.84;;;1.16;83.48
74659;BME280;63186;51.204;6.536;2023-01-24T05:18:42;103244.91;;;1.19;83.81
74659;BME280;63186;51.204;6.536;2023-01-24T05:21:12;103247.44;;;1.20;83.20
74659;BME280;63186;51.204;6.536;2023-01-24T05:23:38;103249.31;;;1.20;83.80
74659;BME280;63186;51.204;6.536;2023-01-24T05:26:03;103251.19;;;1.19;83.35
74659;BME280;63186;51.204;6.536;2023-01-24T05:28:30;103237.44;;;1.21;83.46
74659;BME280;63186;51.204;6.536;2023-01-24T05:31:02;103252.88;;;1.20;83.80
74659;BME280;63186;51.204;6.536;2023-01-24T05:33:28;103251.75;;;1.15;84.44
74659;BME280;63186;51.204;6.536;2023-01-24T05:36:39;103253.13;;;1.11;82.74
74659;BME280;63186;51.204;6.536;2023-01-24T05:38:46;103252.56;;;1.15;83.72
74659;BME280;63186;51.204;6.536;2023-01-24T05:41:15;103257.34;;;1.13;84.41
74659;BME280;63186;51.204;6.536;2023-01-24T05:43:46;103253.31;;;1.09;84.59
74659;BME280;63186;51.204;6.536;2023-01-24T05:46:20;103258.09;;;1.07;83.96
74659;BME280;63186;51.204;6.536;2023-01-24T05:48:46;103261.47;;;1.09;84.14
74659;BME280;63186;51.204;6.536;2023-01-24T05:51:15;103261.47;;;1.09;84.43
74659;BME280;63186;51.204;6.536;2023-01-24T05:53:41;103263.16;;;1.10;84.13
74659;BME280;63186;51.204;6.536;2023-01-24T05:56:11;103277.38;;;1.12;83.82
74659;BME280;63186;51.204;6.536;2023-01-24T05:58:38;103279.25;;;1.12;83.94
74659;BME280;63186;51.204;6.536;2023-01-24T06:01:16;103277.53;;;1.11;83.42
74659;BME280;63186;51.204;6.536;2023-01-24T06:03:43;103280.09;;;1.12;83.56
74659;BME280;63186;51.204;6.536;2023-01-24T06:06:10;103283.84;;;1.11;83.94
74659;BME280;63186;51.204;6.536;2023-01-24T06:08:36;103281.50;;;1.08;84.19
74659;BME280;63186;51.204;6.536;2023-01-24T06:11:04;103286.91;;;1.08;84.34
74659;BME280;63186;51.204;6.536;2023-01-24T06:13:30;103283.56;;;1.06;84.39
74659;BME280;63186;51.204;6.536;2023-01-24T06:16:03;103284.19;;;1.08;83.63
74659;BME280;63186;51.204;6.536;2023-01-24T06:18:29;103286.25;;;1.06;84.59
74659;BME280;63186;51.204;6.536;2023-01-24T06:20:54;103294.94;;;1.01;83.83
74659;BME280;63186;51.204;6.536;2023-01-24T06:23:28;103290.38;;;1.02;83.08
74659;BME280;63186;51.204;6.536;2023-01-24T06:25:53;103298.16;;;1.05;83.30
74659;BME280;63186;51.204;6.536;2023-01-24T06:28:19;103298.41;;;1.10;83.75
74659;BME280;63186;51.204;6.536;2023-01-24T06:30:55;103292.34;;;1.08;83.70
74659;BME280;63186;51.204;6.536;2023-01-24T06:33:40;103304.22;;;1.07;83.34
74659;BME280;63186;51.204;6.536;2023-01-24T06:36:32;103292.03;;;1.03;83.83
74659;BME280;63186;51.204;6.536;2023-01-24T06:39:02;103303.94;;;1.02;83.64
74659;BME280;63186;51.204;6.536;2023-01-24T06:41:28;103307.28;;;1.04;83.57
74659;BME280;63186;51.204;6.536;2023-01-24T06:43:53;103310.69;;;1.06;83.96
74659;BME280;63186;51.204;6.536;2023-01-24T06:46:19;103303.94;;;1.02;84.03
74659;BME280;63186;51.204;6.536;2023-01-24T06:48:44;103304.97;;;1.01;83.87
74659;BME280;63186;51.204;6.536;2023-01-24T06:51:13;103306.63;;;1.02;84.50
74659;BME280;63186;51.204;6.536;2023-01-24T06:53:40;103307.66;;;1.01;84.73
74659;BME280;63186;51.204;6.536;2023-01-24T06:56:06;103310.56;;;0.99;84.96
74659;BME280;63186;51.204;6.536;2023-01-24T06:58:31;103308.06;;;0.98;84.92
74659;BME280;63186;51.204;6.536;2023-01-24T07:00:56;103312.59;;;0.97;85.25
74659;BME280;63186;51.204;6.536;2023-01-24T07:03:22;103312.34;;;0.92;85.29
74659;BME280;63186;51.204;6.536;2023-01-24T07:05:47;103311.78;;;0.97;85.09
74659;BME280;63186;51.204;6.536;2023-01-24T07:08:12;103310.94;;;0.96;84.96
74659;BME280;63186;51.204;6.536;2023-01-24T07:10:38;103320.41;;;1.00;85.03
74659;BME280;63186;51.204;6.536;2023-01-24T07:13:04;103324.97;;;1.00;83.94
74659;BME280;63186;51.204;6.536;2023-01-24T07:15:29;103320.19;;;1.02;84.26
74659;BME280;63186;51.204;6.536;2023-01-24T07:17:55;103322.25;;;1.00;84.53
74659;BME280;63186;51.204;6.536;2023-01-24T07:20:20;103331.44;;;0.99;84.52
74659;BME280;63186;51.204;6.536;2023-01-24T07:22:46;103338.72;;;0.98;84.55
74659;BME280;63186;51.204;6.536;2023-01-24T07:25:17;103336.38;;;0.95;85.14
74659;BME280;63186;51.204;6.536;2023-01-24T07:27:44;103342.81;;;0.94;84.70
74659;BME280;63186;51.204;6.536;2023-01-24T07:30:11;103348.91;;;0.96;84.77
74659;BME280;63186;51.204;6.536;2023-01-24T07:32:36;103349.59;;;0.98;84.88
74659;BME280;63186;51.204;6.536;2023-01-24T07:35:02;103351.44;;;0.98;84.92
74659;BME280;63186;51.204;6.536;2023-01-24T07:37:33;103352.66;;;0.95;84.20
74659;BME280;63186;51.204;6.536;2023-01-24T07:39:58;103345.16;;;0.97;84.73
74659;BME280;63186;51.204;6.536;2023-01-24T07:42:24;103354.81;;;1.00;84.76
74659;BME280;63186;51.204;6.536;2023-01-24T07:44:49;103355.66;;;1.00;84.21
74659;BME280;63186;51.204;6.536;2023-01-24T07:47:15;103356.31;;;1.02;84.35
74659;BME280;63186;51.204;6.536;2023-01-24T07:49:40;103359.69;;;1.04;84.73
74659;BME280;63186;51.204;6.536;2023-01-24T07:52:06;103371.75;;;1.02;84.45
74659;BME280;63186;51.204;6.536;2023-01-24T07:54:31;103366.13;;;1.03;84.33
74659;BME280;63186;51.204;6.536;2023-01-24T07:56:56;103366.50;;;1.00;84.72
74659;BME280;63186;51.204;6.536;2023-01-24T07:59:21;103359.03;;;1.02;84.52
74659;BME280;63186;51.204;6.536;2023-01-24T08:01:47;103365.78;;;1.06;84.49
74659;BME280;63186;51.204;6.536;2023-01-24T08:04:12;103372.50;;;1.11;83.62
74659;BME280;63186;51.204;6.536;2023-01-24T08:06:38;103358.09;;;1.10;84.57
74659;BME280;63186;51.204;6.536;2023-01-24T08:09:24;103372.69;;;1.09;84.41
74659;BME280;63186;51.204;6.536;2023-01-24T08:11:49;103373.19;;;1.13;84.13
74659;BME280;63186;51.204;6.536;2023-01-24T08:14:14;103373.81;;;1.15;83.96
74659;BME280;63186;51.204;6.536;2023-01-24T08:16:39;103378.22;;;1.16;83.34
74659;BME280;63186;51.204;6.536;2023-01-24T08:19:05;103374.31;;;1.18;83.58
74659;BME280;63186;51.204;6.536;2023-01-24T08:21:30;103370.75;;;1.18;83.30
74659;BME280;63186;51.204;6.536;2023-01-24T08:23:55;103370.56;;;1.19;83.35
74659;BME280;63186;51.204;6.536;2023-01-24T08:26:20;103370.38;;;1.21;83.19
74659;BME280;63186;51.204;6.536;2023-01-24T08:28:46;103372.91;;;1.22;82.91
74659;BME280;63186;51.204;6.536;2023-01-24T08:31:11;103370.00;;;1.24;81.96
74659;BME280;63186;51.204;6.536;2023-01-24T08:33:36;103378.81;;;1.26;82.38
74659;BME280;63186;51.204;6.536;2023-01-24T08:36:03;103375.25;;;1.25;82.39
74659;BME280;63186;51.204;6.536;2023-01-24T08:38:28;103388.84;;;1.25;82.36
74659;BME280;63186;51.204;6.536;2023-01-24T08:40:53;103371.22;;;1.21;82.68
74659;BME280;63186;51.204;6.536;2023-01-24T08:43:19;103388.84;;;1.25;82.54
74659;BME280;63186;51.204;6.536;2023-01-24T08:45:44;103388.84;;;1.25;83.09
74659;BME280;63186;51.204;6.536;2023-01-24T08:48:09;103396.41;;;1.30;83.10
74659;BME280;63186;51.204;6.536;2023-01-24T08:50:35;103402.84;;;1.29;82.52
74659;BME280;63186;51.204;6.536;2023-01-24T08:53:00;103399.78;;;1.32;83.21
74659;BME280;63186;51.204;6.536;2023-01-24T08:57:59;103405.31;;;1.39;82.42
74659;BME280;63186;51.204;6.536;2023-01-24T09:00:24;103409.72;;;1.40;82.45
74659;BME280;63186;51.204;6.536;2023-01-24T09:02:50;103416.81;;;1.41;82.67
74659;BME280;63186;51.204;6.536;2023-01-24T09:05:15;103411.78;;;1.38;83.21
74659;BME280;63186;51.204;6.536;2023-01-24T09:07:40;103406.34;;;1.38;83.08
74659;BME280;63186;51.204;6.536;2023-01-24T09:10:07;103400.72;;;1.39;83.30
74659;BME280;63186;51.204;6.536;2023-01-24T09:12:32;103408.50;;;1.42;82.89
74659;BME280;63186;51.204;6.536;2023-01-24T09:14:58;103406.91;;;1.48;83.38
74659;BME280;63186;51.204;6.536;2023-01-24T09:17:24;103410.28;;;1.50;83.16
74659;BME280;63186;51.204;6.536;2023-01-24T09:19:49;103407.28;;;1.45;82.69
74659;BME280;63186;51.204;6.536;2023-01-24T09:22:15;103419.66;;;1.47;83.21
74659;BME280;63186;51.204;6.536;2023-01-24T09:24:40;103412.34;;;1.48;83.17
74659;BME280;63186;51.204;6.536;2023-01-24T09:27:05;103412.53;;;1.46;83.38
74659;BME280;63186;51.204;6.536;2023-01-24T09:29:31;103403.16;;;1.49;83.21
74659;BME280;63186;51.204;6.536;2023-01-24T09:31:56;103418.25;;;1.51;82.82
74659;BME280;63186;51.204;6.536;2023-01-24T09:34:21;103415.34;;;1.53;83.56
74659;BME280;63186;51.204;6.536;2023-01-24T09:36:47;103421.63;;;1.53;83.44
74659;BME280;63186;51.204;6.536;2023-01-24T09:39:14;103420.78;;;1.53;82.43
74659;BME280;63186;51.204;6.536;2023-01-24T09:44:16;103420.13;;;1.51;82.80
74659;BME280;63186;51.204;6.536;2023-01-24T09:46:48;103429.47;;;1.48;82.79
74659;BME280;63186;51.204;6.536;2023-01-24T09:49:34;103424.34;;;1.53;82.77
74659;BME280;63186;51.204;6.536;2023-01-24T09:52:02;103420.13;;;1.51;82.92
74659;BME280;63186;51.204;6.536;2023-01-24T09:54:38;103416.84;;;1.55;82.38
74659;BME280;63186;51.204;6.536;2023-01-24T09:57:22;103420.69;;;1.61;82.99
74659;BME280;63186;51.204;6.536;2023-01-24T09:59:52;103415.81;;;1.56;82.44
74659;BME280;63186;51.204;6.536;2023-01-24T10:02:20;103421.22;;;1.56;82.43
74659;BME280;63186;51.204;6.536;2023-01-24T10:04:47;103427.16;;;1.60;82.57
74659;BME280;63186;51.204;6.536;2023-01-24T10:10:24;103432.03;;;1.65;81.88
74659;BME280;63186;51.204;6.536;2023-01-24T10:24:12;103428.47;;;1.64;82.41
74659;BME280;63186;51.204;6.536;2023-01-24T10:26:57;103429.41;;;1.71;82.66
74659;BME280;63186;51.204;6.536;2023-01-24T10:29:25;103431.75;;;1.74;82.42
74659;BME280;63186;51.204;6.536;2023-01-24T10:31:56;103420.31;;;1.79;82.76
74659;BME280;63186;51.204;6.536;2023-01-24T10:34:32;103430.53;;;1.77;82.07
74659;BME280;63186;51.204;6.536;2023-01-24T10:39:34;103426.31;;;1.74;82.62
74659;BME280;63186;51.204;6.536;2023-01-24T10:41:59;103427.16;;;1.75;82.15
74659;BME280;63186;51.204;6.536;2023-01-24T10:44:29;103432.22;;;1.78;82.08
74659;BME280;63186;51.204;6.536;2023-01-24T10:50:00;103434.34;;;1.82;82.86
74659;BME280;63186;51.204;6.536;2023-01-24T10:52:26;103436.63;;;1.79;82.16
74659;BME280;63186;51.204;6.536;2023-01-24T10:54:55;103432.69;;;1.81;82.98
74659;BME280;63186;51.204;6.536;2023-01-24T10:57:56;103428.75;;;1.84;82.38
74659;BME280;63186;51.204;6.536;2023-01-24T11:02:58;103427.81;;;1.77;81.65
74659;BME280;63186;51.204;6.536;2023-01-24T11:05:24;103429.69;;;1.76;81.63
74659;BME280;63186;51.204;6.536;2023-01-24T11:07:59;103435.31;;;1.75;81.09
74659;BME280;63186;51.204;6.536;2023-01-24T11:10:37;103427.16;;;1.75;81.48
74659;BME280;63186;51.204;6.536;2023-01-24T11:13:33;103429.50;;;1.78;80.31
74659;BME280;63186;51.204;6.536;2023-01-24T11:16:02;103417.06;;;1.83;81.60
74659;BME280;63186;51.204;6.536;2023-01-24T11:18:28;103419.38;;;1.86;81.30
74659;BME280;63186;51.204;6.536;2023-01-24T11:21:05;103419.59;;;1.85;80.65
74659;BME280;63186;51.204;6.536;2023-01-24T11:23:31;103415.00;;;1.85;80.78
74659;BME280;63186;51.204;6.536;2023-01-24T11:25:58;103411.53;;;1.92;80.58
74659;BME280;63186;51.204;6.536;2023-01-24T11:28:30;103406.38;;;1.97;80.71
74659;BME280;63186;51.204;6.536;2023-01-24T11:30:59;103401.97;;;1.96;80.61
74659;BME280;63186;51.204;6.536;2023-01-24T11:41:56;103401.63;;;2.20;80.61
74659;BME280;63186;51.204;6.536;2023-01-24T11:47:15;103393.03;;;2.16;78.99
74659;BME280;63186;51.204;6.536;2023-01-24T11:55:39;103395.28;;;2.13;80.99
74659;BME280;63186;51.204;6.536;2023-01-24T11:58:19;103390.41;;;2.08;80.16
74659;BME280;63186;51.204;6.536;2023-01-24T12:01:08;103389.56;;;2.08;79.30
74659;BME280;63186;51.204;6.536;2023-01-24T12:03:59;103383.97;;;2.09;79.21
74659;BME280;63186;51.204;6.536;2023-01-24T12:09:43;103369.50;;;2.24;79.02
74659;BME280;63186;51.204;6.536;2023-01-24T12:12:20;103363.22;;;2.23;79.27
74659;BME280;63186;51.204;6.536;2023-01-24T12:14:57;103370.13;;;2.26;80.04
74659;BME280;63186;51.204;6.536;2023-01-24T12:23:19;103359.59;;;2.16;78.90
74659;BME280;63186;51.204;6.536;2023-01-24T12:25:46;103350.53;;;2.09;78.78
74659;BME280;63186;51.204;6.536;2023-01-24T12:31:24;103359.75;;;2.14;79.83
74659;BME280;63186;51.204;6.536;2023-01-24T12:34:24;103355.91;;;2.24;79.24
74659;BME280;63186;51.204;6.536;2023-01-24T12:37:06;103345.94;;;2.31;79.52
74659;BME280;63186;51.204;6.536;2023-01-24T12:42:59;103337.53;;;2.26;78.20
74659;BME280;63186;51.204;6.536;2023-01-24T12:45:36;103327.28;;;2.28;79.55
74659;BME280;63186;51.204;6.536;2023-01-24T12:48:19;103330.75;;;2.36;79.18
74659;BME280;63186;51.204;6.536;2023-01-24T12:51:03;103329.16;;;2.27;79.78
74659;BME280;63186;51.204;6.536;2023-01-24T12:56:22;103326.78;;;2.17;80.28
74659;BME280;63186;51.204;6.536;2023-01-24T12:58:51;103324.44;;;2.14;79.92
74659;BME280;63186;51.204;6.536;2023-01-24T13:02:16;103318.81;;;2.16;79.98
74659;BME280;63186;51.204;6.536;2023-01-24T13:09:55;103309.38;;;2.33;79.20
74659;BME280;63186;51.204;6.536;2023-01-24T13:12:26;103307.25;;;2.29;78.44
74659;BME280;63186;51.204;6.536;2023-01-24T13:15:01;103300.97;;;2.28;79.33
74659;BME280;63186;51.204;6.536;2023-01-24T13:33:48;103324.44;;;2.14;80.48
74659;BME280;63186;51.204;6.536;2023-01-24T13:36:40;103325.16;;;2.23;80.26
74659;BME280;63186;51.204;6.536;2023-01-24T13:44:43;103314.16;;;2.31;80.03
74659;BME280;63186;51.204;6.536;2023-01-24T13:49:37;103307.69;;;2.32;79.87
74659;BME280;63186;51.204;6.536;2023-01-24T13:54:58;103309.69;;;2.24;80.84
74659;BME280;63186;51.204;6.536;2023-01-24T13:57:26;103306.59;;;2.27;80.66
74659;BME280;63186;51.204;6.536;2023-01-24T14:03:12;103316.03;;;2.31;79.56
74659;BME280;63186;51.204;6.536;2023-01-24T14:05:50;103320.38;;;2.25;80.12
74659;BME280;63186;51.204;6.536;2023-01-24T14:08:33;103322.53;;;2.15;79.78
74659;BME280;63186;51.204;6.536;2023-01-24T14:18:51;103326.16;;;2.01;80.64
74659;BME280;63186;51.204;6.536;2023-01-24T14:21:20;103324.66;;;1.98;79.80
74659;BME280;63186;51.204;6.536;2023-01-24T14:23:50;103323.94;;;1.89;79.80
74659;BME280;63186;51.204;6.536;2023-01-24T14:26:18;103329.09;;;1.84;81.31
74659;BME280;63186;51.204;6.536;2023-01-24T14:28:53;103318.44;;;1.83;81.27
74659;BME280;63186;51.204;6.536;2023-01-24T14:31:24;103328.50;;;1.89;80.93
74659;BME280;63186;51.204;6.536;2023-01-24T14:33:55;103318.69;;;1.88;80.99
74659;BME280;63186;51.204;6.536;2023-01-24T14:36:31;103324.31;;;1.86;79.99
74659;BME280;63186;51.204;6.536;2023-01-24T14:41:45;103330.97;;;1.84;80.51
74659;BME280;63186;51.204;6.536;2023-01-24T14:44:37;103334.63;;;1.91;80.83
74659;BME280;63186;51.204;6.536;2023-01-24T14:47:02;103333.59;;;1.92;80.90
74659;BME280;63186;51.204;6.536;2023-01-24T14:49:31;103335.66;;;1.90;81.07
74659;BME280;63186;51.204;6.536;2023-01-24T14:51:58;103332.84;;;1.83;81.15
74659;BME280;63186;51.204;6.536;2023-01-24T14:54:24;103330.31;;;1.82;81.18
74659;BME280;63186;51.204;6.536;2023-01-24T14:56:50;103338.66;;;1.80;81.61
74659;BME280;63186;51.204;6.536;2023-01-24T14:59:17;103334.25;;;1.79;81.34
74659;BME280;63186;51.204;6.536;2023-01-24T15:01:44;103341.09;;;1.75;79.35
74659;BME280;63186;51.204;6.536;2023-01-24T15:04:26;103327.91;;;1.72;80.85